sensor_id;sensor_type;location;lat;lon;timestamp;P1;durP1;ratioP1;P2;durP2;ratioP2
63398;SDS011;49533;-34.520;150.798;2022-08-27T00:00:31;10.93;;;0.52;;
63398;SDS011;49533;-34.520;150.798;2022-08-27T00:02:58;5.28;;;0.57;;
63398;SDS011;49533;-34.520;150.798;2022-08-27T00:05:27;4.40;;;0.75;;
63398;SDS011;49533;-34.520;150.798;2022-08-27T00:07:54;3.30;;;0.70;;
63398;SDS011;49533;-34.520;150.798;2022-08-27T00:10:22;1.48;;;0.50;;
63398;SDS011;49533;-34.520;150.798;2022-08-27T00:12:52;1.67;;;0.70;;
63398;SDS011;49533;-34.520;150.798;2022-08-27T00:15:22;2.38;;;0.70;;
63398;SDS011;49533;-34.520;150.798;2022-08-27T00:17:50;0.98;;;0.60;;
63398;SDS011;49533;-34.520;150.798;2022-08-27T00:20:20;1.95;;;0.40;;
63398;SDS011;49533;-34.520;150.798;2022-08-27T00:22:50;2.33;;;0.57;;
63398;SDS011;49533;-34.520;150.798;2022-08-27T00:25:19;1.15;;;0.40;;
63398;SDS011;49533;-34.520;150.798;2022-08-27T00:27:47;1.48;;;0.57;;
63398;SDS011;49533;-34.520;150.798;2022-08-27T00:30:15;0.68;;;0.47;;
63398;SDS011;49533;-34.520;150.798;2022-08-27T00:32:43;1.23;;;0.50;;
63398;SDS011;49533;-34.520;150.798;2022-08-27T00:35:11;1.05;;;0.22;;
63398;SDS011;49533;-34.520;150.798;2022-08-27T00:37:40;11.85;;;1.63;;
63398;SDS011;49533;-34.520;150.798;2022-08-27T00:40:10;3.38;;;0.55;;
63398;SDS011;49533;-34.520;150.798;2022-08-27T00:42:39;2.78;;;0.57;;
63398;SDS011;49533;-34.520;150.798;2022-08-27T00:45:07;2.50;;;0.40;;
63398;SDS011;49533;-34.520;150.798;2022-08-27T00:47:35;0.70;;;0.40;;
63398;SDS011;49533;-34.520;150.798;2022-08-27T00:50:08;2.38;;;0.52;;
63398;SDS011;49533;-34.520;150.798;2022-08-27T00:52:52;0.30;;;0.25;;
63398;SDS011;49533;-34.520;150.798;2022-08-27T00:55:29;1.00;;;0.30;;
63398;SDS011;49533;-34.520;150.798;2022-08-27T00:58:34;1.60;;;0.52;;
63398;SDS011;49533;-34.520;150.798;2022-08-27T01:01:04;3.53;;;0.30;;
63398;SDS011;49533;-34.520;150.798;2022-08-27T01:03:34;0.68;;;0.68;;
63398;SDS011;49533;-34.520;150.798;2022-08-27T01:06:03;1.67;;;0.40;;
63398;SDS011;49533;-34.520;150.798;2022-08-27T01:08:35;1.02;;;0.50;;
63398;SDS011;49533;-34.520;150.798;2022-08-27T01:11:05;1.38;;;0.30;;
63398;SDS011;49533;-34.520;150.798;2022-08-27T01:13:33;1.20;;;0.47;;
63398;SDS011;49533;-34.520;150.798;2022-08-27T01:16:00;0.60;;;0.38;;
63398;SDS011;49533;-34.520;150.798;2022-08-27T01:18:28;1.55;;;0.40;;
63398;SDS011;49533;-34.520;150.798;2022-08-27T01:21:00;0.88;;;0.35;;
63398;SDS011;49533;-34.520;150.798;2022-08-27T01:24:01;1.58;;;0.35;;
63398;SDS011;49533;-34.520;150.798;2022-08-27T01:26:39;2.40;;;0.50;;
63398;SDS011;49533;-34.520;150.798;2022-08-27T01:29:07;2.20;;;0.40;;
63398;SDS011;49533;-34.520;150.798;2022-08-27T01:31:34;1.35;;;0.60;;
63398;SDS011;49533;-34.520;150.798;2022-08-27T01:34:02;1.02;;;0.55;;
63398;SDS011;49533;-34.520;150.798;2022-08-27T01:36:31;4.15;;;0.80;;
63398;SDS011;49533;-34.520;150.798;2022-08-27T01:38:58;2.35;;;0.77;;
63398;SDS011;49533;-34.520;150.798;2022-08-27T01:41:25;3.08;;;0.70;;
63398;SDS011;49533;-34.520;150.798;2022-08-27T01:43:52;2.47;;;0.50;;
63398;SDS011;49533;-34.520;150.798;2022-08-27T01:46:23;1.35;;;0.50;;
63398;SDS011;49533;-34.520;150.798;2022-08-27T01:48:52;2.53;;;0.82;;
63398;SDS011;49533;-34.520;150.798;2022-08-27T01:51:20;0.80;;;0.60;;
63398;SDS011;49533;-34.520;150.798;2022-08-27T01:53:47;2.30;;;0.70;;
63398;SDS011;49533;-34.520;150.798;2022-08-27T01:56:15;2.75;;;0.50;;
63398;SDS011;49533;-34.520;150.798;2022-08-27T01:58:42;2.00;;;0.70;;
63398;SDS011;49533;-34.520;150.798;2022-08-27T02:01:10;1.30;;;0.70;;
63398;SDS011;49533;-34.520;150.798;2022-08-27T02:03:41;2.25;;;0.80;;
63398;SDS011;49533;-34.520;150.798;2022-08-27T02:06:09;4.47;;;1.20;;
63398;SDS011;49533;-34.520;150.798;2022-08-27T02:08:37;3.03;;;1.02;;
63398;SDS011;49533;-34.520;150.798;2022-08-27T02:11:04;3.45;;;1.50;;
63398;SDS011;49533;-34.520;150.798;2022-08-27T02:13:33;3.13;;;1.13;;
63398;SDS011;49533;-34.520;150.798;2022-08-27T02:16:00;2.05;;;0.65;;
63398;SDS011;49533;-34.520;150.798;2022-08-27T02:18:27;3.97;;;1.23;;
63398;SDS011;49533;-34.520;150.798;2022-08-27T02:20:54;3.90;;;1.10;;
63398;SDS011;49533;-34.520;150.798;2022-08-27T02:23:21;2.60;;;1.20;;
63398;SDS011;49533;-34.520;150.798;2022-08-27T02:25:48;0.90;;;0.47;;
63398;SDS011;49533;-34.520;150.798;2022-08-27T02:28:15;2.53;;;0.88;;
63398;SDS011;49533;-34.520;150.798;2022-08-27T02:30:42;3.65;;;0.80;;
63398;SDS011;49533;-34.520;150.798;2022-08-27T02:33:10;3.97;;;1.00;;
63398;SDS011;49533;-34.520;150.798;2022-08-27T02:35:38;1.70;;;0.65;;
63398;SDS011;49533;-34.520;150.798;2022-08-27T02:38:08;2.55;;;0.80;;
63398;SDS011;49533;-34.520;150.798;2022-08-27T02:40:37;1.38;;;0.47;;
63398;SDS011;49533;-34.520;150.798;2022-08-27T02:43:04;1.63;;;0.68;;
63398;SDS011;49533;-34.520;150.798;2022-08-27T02:45:32;2.00;;;0.50;;
63398;SDS011;49533;-34.520;150.798;2022-08-27T02:48:01;1.10;;;0.60;;
63398;SDS011;49533;-34.520;150.798;2022-08-27T02:50:28;1.80;;;0.63;;
63398;SDS011;49533;-34.520;150.798;2022-08-27T02:52:55;1.25;;;0.40;;
63398;SDS011;49533;-34.520;150.798;2022-08-27T02:55:23;0.57;;;0.57;;
63398;SDS011;49533;-34.520;150.798;2022-08-27T02:57:50;1.35;;;0.60;;
63398;SDS011;49533;-34.520;150.798;2022-08-27T03:00:17;1.17;;;0.40;;
63398;SDS011;49533;-34.520;150.798;2022-08-27T03:02:45;1.02;;;0.40;;
63398;SDS011;49533;-34.520;150.798;2022-08-27T03:05:13;0.63;;;0.32;;
63398;SDS011;49533;-34.520;150.798;2022-08-27T03:07:41;1.30;;;0.77;;
63398;SDS011;49533;-34.520;150.798;2022-08-27T03:10:09;1.98;;;0.40;;
63398;SDS011;49533;-34.520;150.798;2022-08-27T03:12:38;2.65;;;0.60;;
63398;SDS011;49533;-34.520;150.798;2022-08-27T03:15:07;0.50;;;0.38;;
63398;SDS011;49533;-34.520;150.798;2022-08-27T03:17:36;1.95;;;0.47;;
63398;SDS011;49533;-34.520;150.798;2022-08-27T03:20:22;2.15;;;0.52;;
63398;SDS011;49533;-34.520;150.798;2022-08-27T03:22:50;3.92;;;0.38;;
63398;SDS011;49533;-34.520;150.798;2022-08-27T03:25:17;0.85;;;0.40;;
63398;SDS011;49533;-34.520;150.798;2022-08-27T03:27:45;2.83;;;0.65;;
63398;SDS011;49533;-34.520;150.798;2022-08-27T03:30:15;1.08;;;0.40;;
63398;SDS011;49533;-34.520;150.798;2022-08-27T03:32:44;2.80;;;0.52;;
63398;SDS011;49533;-34.520;150.798;2022-08-27T03:35:12;1.42;;;0.60;;
63398;SDS011;49533;-34.520;150.798;2022-08-27T03:37:39;1.30;;;0.35;;
63398;SDS011;49533;-34.520;150.798;2022-08-27T03:40:06;0.88;;;0.22;;
63398;SDS011;49533;-34.520;150.798;2022-08-27T03:42:34;1.00;;;0.40;;
63398;SDS011;49533;-34.520;150.798;2022-08-27T03:45:04;1.05;;;0.50;;
63398;SDS011;49533;-34.520;150.798;2022-08-27T03:47:32;2.08;;;0.43;;
63398;SDS011;49533;-34.520;150.798;2022-08-27T03:50:00;0.82;;;0.40;;
63398;SDS011;49533;-34.520;150.798;2022-08-27T03:52:27;1.23;;;0.40;;
63398;SDS011;49533;-34.520;150.798;2022-08-27T03:54:54;1.38;;;0.60;;
63398;SDS011;49533;-34.520;150.798;2022-08-27T03:57:23;4.22;;;0.80;;
63398;SDS011;49533;-34.520;150.798;2022-08-27T03:59:50;2.85;;;0.40;;
63398;SDS011;49533;-34.520;150.798;2022-08-27T04:02:17;2.53;;;0.52;;
63398;SDS011;49533;-34.520;150.798;2022-08-27T04:04:44;2.38;;;0.68;;
63398;SDS011;49533;-34.520;150.798;2022-08-27T04:07:12;0.80;;;0.40;;
63398;SDS011;49533;-34.520;150.798;2022-08-27T04:09:39;0.60;;;0.50;;
63398;SDS011;49533;-34.520;150.798;2022-08-27T04:12:06;1.65;;;0.80;;
63398;SDS011;49533;-34.520;150.798;2022-08-27T04:14:33;0.80;;;0.65;;
63398;SDS011;49533;-34.520;150.798;2022-08-27T04:17:00;3.90;;;0.50;;
63398;SDS011;49533;-34.520;150.798;2022-08-27T04:19:28;0.47;;;0.30;;
63398;SDS011;49533;-34.520;150.798;2022-08-27T04:21:58;1.40;;;0.73;;
63398;SDS011;49533;-34.520;150.798;2022-08-27T04:24:27;2.65;;;1.05;;
63398;SDS011;49533;-34.520;150.798;2022-08-27T04:26:56;1.13;;;0.30;;
63398;SDS011;49533;-34.520;150.798;2022-08-27T04:29:24;1.50;;;0.65;;
63398;SDS011;49533;-34.520;150.798;2022-08-27T04:31:51;2.25;;;0.45;;
63398;SDS011;49533;-34.520;150.798;2022-08-27T04:34:18;5.68;;;0.88;;
63398;SDS011;49533;-34.520;150.798;2022-08-27T04:36:46;0.85;;;0.43;;
63398;SDS011;49533;-34.520;150.798;2022-08-27T04:39:13;1.23;;;0.45;;
63398;SDS011;49533;-34.520;150.798;2022-08-27T04:41:40;0.80;;;0.32;;
63398;SDS011;49533;-34.520;150.798;2022-08-27T04:44:08;3.03;;;0.68;;
63398;SDS011;49533;-34.520;150.798;2022-08-27T04:46:38;1.35;;;0.43;;
63398;SDS011;49533;-34.520;150.798;2022-08-27T04:49:06;2.80;;;0.93;;
63398;SDS011;49533;-34.520;150.798;2022-08-27T04:51:37;1.55;;;0.50;;
63398;SDS011;49533;-34.520;150.798;2022-08-27T04:54:04;0.50;;;0.30;;
63398;SDS011;49533;-34.520;150.798;2022-08-27T04:56:32;4.05;;;0.57;;
63398;SDS011;49533;-34.520;150.798;2022-08-27T04:59:01;2.40;;;0.60;;
63398;SDS011;49533;-34.520;150.798;2022-08-27T05:01:29;1.50;;;0.30;;
63398;SDS011;49533;-34.520;150.798;2022-08-27T05:03:57;1.35;;;0.57;;
63398;SDS011;49533;-34.520;150.798;2022-08-27T05:06:24;2.28;;;0.60;;
63398;SDS011;49533;-34.520;150.798;2022-08-27T05:08:52;0.68;;;0.40;;
63398;SDS011;49533;-34.520;150.798;2022-08-27T05:11:20;1.10;;;0.50;;
63398;SDS011;49533;-34.520;150.798;2022-08-27T05:13:48;0.52;;;0.35;;
63398;SDS011;49533;-34.520;150.798;2022-08-27T05:16:17;0.82;;;0.55;;
63398;SDS011;49533;-34.520;150.798;2022-08-27T05:18:46;1.25;;;0.50;;
63398;SDS011;49533;-34.520;150.798;2022-08-27T05:21:16;1.58;;;0.52;;
63398;SDS011;49533;-34.520;150.798;2022-08-27T05:23:54;0.77;;;0.30;;
63398;SDS011;49533;-34.520;150.798;2022-08-27T05:26:23;0.32;;;0.30;;
63398;SDS011;49533;-34.520;150.798;2022-08-27T05:28:51;1.08;;;0.60;;
63398;SDS011;49533;-34.520;150.798;2022-08-27T05:31:19;1.85;;;0.47;;
63398;SDS011;49533;-34.520;150.798;2022-08-27T05:33:47;2.63;;;0.50;;
63398;SDS011;49533;-34.520;150.798;2022-08-27T05:36:15;1.40;;;0.50;;
63398;SDS011;49533;-34.520;150.798;2022-08-27T05:38:45;3.78;;;0.70;;
63398;SDS011;49533;-34.520;150.798;2022-08-27T05:41:20;1.63;;;0.50;;
63398;SDS011;49533;-34.520;150.798;2022-08-27T05:43:50;2.10;;;0.47;;
63398;SDS011;49533;-34.520;150.798;2022-08-27T05:46:19;2.47;;;0.50;;
63398;SDS011;49533;-34.520;150.798;2022-08-27T05:48:47;1.77;;;0.30;;
63398;SDS011;49533;-34.520;150.798;2022-08-27T05:51:17;1.40;;;0.43;;
63398;SDS011;49533;-34.520;150.798;2022-08-27T05:53:45;0.75;;;0.30;;
63398;SDS011;49533;-34.520;150.798;2022-08-27T05:56:14;1.45;;;0.30;;
63398;SDS011;49533;-34.520;150.798;2022-08-27T05:58:45;0.90;;;0.30;;
63398;SDS011;49533;-34.520;150.798;2022-08-27T06:01:33;0.38;;;0.38;;
63398;SDS011;49533;-34.520;150.798;2022-08-27T06:04:03;1.95;;;0.50;;
63398;SDS011;49533;-34.520;150.798;2022-08-27T06:06:34;1.17;;;0.40;;
63398;SDS011;49533;-34.520;150.798;2022-08-27T06:09:03;1.13;;;0.50;;
63398;SDS011;49533;-34.520;150.798;2022-08-27T06:11:31;7.18;;;0.55;;
63398;SDS011;49533;-34.520;150.798;2022-08-27T06:13:58;3.42;;;0.93;;
63398;SDS011;49533;-34.520;150.798;2022-08-27T06:16:26;0.30;;;0.20;;
63398;SDS011;49533;-34.520;150.798;2022-08-27T06:18:53;2.00;;;0.50;;
63398;SDS011;49533;-34.520;150.798;2022-08-27T06:21:24;3.22;;;0.38;;
63398;SDS011;49533;-34.520;150.798;2022-08-27T06:23:52;3.03;;;0.40;;
63398;SDS011;49533;-34.520;150.798;2022-08-27T06:26:20;0.20;;;0.20;;
63398;SDS011;49533;-34.520;150.798;2022-08-27T06:28:49;4.72;;;0.40;;
63398;SDS011;49533;-34.520;150.798;2022-08-27T06:31:17;0.13;;;0.13;;
63398;SDS011;49533;-34.520;150.798;2022-08-27T06:33:48;2.28;;;0.60;;
63398;SDS011;49533;-34.520;150.798;2022-08-27T06:36:20;2.05;;;0.50;;
63398;SDS011;49533;-34.520;150.798;2022-08-27T06:38:49;0.75;;;0.30;;
63398;SDS011;49533;-34.520;150.798;2022-08-27T06:41:19;1.08;;;0.30;;
63398;SDS011;49533;-34.520;150.798;2022-08-27T06:43:49;2.35;;;0.35;;
63398;SDS011;49533;-34.520;150.798;2022-08-27T06:46:17;0.40;;;0.40;;
63398;SDS011;49533;-34.520;150.798;2022-08-27T06:48:46;1.65;;;0.38;;
63398;SDS011;49533;-34.520;150.798;2022-08-27T06:51:17;2.55;;;0.63;;
63398;SDS011;49533;-34.520;150.798;2022-08-27T06:53:48;0.82;;;0.32;;
63398;SDS011;49533;-34.520;150.798;2022-08-27T06:56:17;3.55;;;0.43;;
63398;SDS011;49533;-34.520;150.798;2022-08-27T06:58:45;2.08;;;0.75;;
63398;SDS011;49533;-34.520;150.798;2022-08-27T07:01:14;2.50;;;0.60;;
63398;SDS011;49533;-34.520;150.798;2022-08-27T07:03:46;4.10;;;0.93;;
63398;SDS011;49533;-34.520;150.798;2022-08-27T07:06:15;3.10;;;1.17;;
63398;SDS011;49533;-34.520;150.798;2022-08-27T07:08:42;1.83;;;0.45;;
63398;SDS011;49533;-34.520;150.798;2022-08-27T07:11:12;1.17;;;0.63;;
63398;SDS011;49533;-34.520;150.798;2022-08-27T07:13:39;1.73;;;0.52;;
63398;SDS011;49533;-34.520;150.798;2022-08-27T07:16:08;1.88;;;0.45;;
63398;SDS011;49533;-34.520;150.798;2022-08-27T07:18:38;1.42;;;0.52;;
63398;SDS011;49533;-34.520;150.798;2022-08-27T07:21:06;2.42;;;0.38;;
63398;SDS011;49533;-34.520;150.798;2022-08-27T07:23:35;6.47;;;0.95;;
63398;SDS011;49533;-34.520;150.798;2022-08-27T07:26:07;5.93;;;1.20;;
63398;SDS011;49533;-34.520;150.798;2022-08-27T07:28:36;2.63;;;0.60;;
63398;SDS011;49533;-34.520;150.798;2022-08-27T07:31:05;1.55;;;0.73;;
63398;SDS011;49533;-34.520;150.798;2022-08-27T07:33:36;2.50;;;0.88;;
63398;SDS011;49533;-34.520;150.798;2022-08-27T07:36:04;3.03;;;0.60;;
63398;SDS011;49533;-34.520;150.798;2022-08-27T07:38:32;2.08;;;0.82;;
63398;SDS011;49533;-34.520;150.798;2022-08-27T07:41:03;3.92;;;1.13;;
63398;SDS011;49533;-34.520;150.798;2022-08-27T07:43:31;3.47;;;0.60;;
63398;SDS011;49533;-34.520;150.798;2022-08-27T07:46:16;2.38;;;0.70;;
63398;SDS011;49533;-34.520;150.798;2022-08-27T07:48:47;5.45;;;0.68;;
63398;SDS011;49533;-34.520;150.798;2022-08-27T07:51:16;3.50;;;0.60;;
63398;SDS011;49533;-34.520;150.798;2022-08-27T07:53:46;4.93;;;0.80;;
63398;SDS011;49533;-34.520;150.798;2022-08-27T07:56:13;3.60;;;0.75;;
63398;SDS011;49533;-34.520;150.798;2022-08-27T07:58:41;3.00;;;0.60;;
63398;SDS011;49533;-34.520;150.798;2022-08-27T08:01:09;2.05;;;0.68;;
63398;SDS011;49533;-34.520;150.798;2022-08-27T08:03:36;3.03;;;0.70;;
63398;SDS011;49533;-34.520;150.798;2022-08-27T08:06:10;3.47;;;0.80;;
63398;SDS011;49533;-34.520;150.798;2022-08-27T08:08:38;3.75;;;0.90;;
63398;SDS011;49533;-34.520;150.798;2022-08-27T08:11:10;2.05;;;0.70;;
63398;SDS011;49533;-34.520;150.798;2022-08-27T08:13:38;2.03;;;0.60;;
63398;SDS011;49533;-34.520;150.798;2022-08-27T08:16:09;1.08;;;0.40;;
63398;SDS011;49533;-34.520;150.798;2022-08-27T08:18:37;0.80;;;0.60;;
63398;SDS011;49533;-34.520;150.798;2022-08-27T08:21:08;2.88;;;0.60;;
63398;SDS011;49533;-34.520;150.798;2022-08-27T08:23:37;2.22;;;0.40;;
63398;SDS011;49533;-34.520;150.798;2022-08-27T08:26:06;1.38;;;0.73;;
63398;SDS011;49533;-34.520;150.798;2022-08-27T08:28:34;1.45;;;0.77;;
63398;SDS011;49533;-34.520;150.798;2022-08-27T08:31:02;2.92;;;0.57;;
63398;SDS011;49533;-34.520;150.798;2022-08-27T08:33:29;1.00;;;0.40;;
63398;SDS011;49533;-34.520;150.798;2022-08-27T08:36:04;0.80;;;0.43;;
63398;SDS011;49533;-34.520;150.798;2022-08-27T08:38:37;1.80;;;0.80;;
63398;SDS011;49533;-34.520;150.798;2022-08-27T08:41:05;1.23;;;0.50;;
63398;SDS011;49533;-34.520;150.798;2022-08-27T08:43:53;1.33;;;0.70;;
63398;SDS011;49533;-34.520;150.798;2022-08-27T08:46:38;1.02;;;0.63;;
63398;SDS011;49533;-34.520;150.798;2022-08-27T08:49:20;2.13;;;0.70;;
63398;SDS011;49533;-34.520;150.798;2022-08-27T08:52:09;0.77;;;0.40;;
63398;SDS011;49533;-34.520;150.798;2022-08-27T08:54:44;1.27;;;0.60;;
63398;SDS011;49533;-34.520;150.798;2022-08-27T08:57:21;1.38;;;0.70;;
63398;SDS011;49533;-34.520;150.798;2022-08-27T09:00:00;3.83;;;1.30;;
63398;SDS011;49533;-34.520;150.798;2022-08-27T09:02:37;1.05;;;0.85;;
63398;SDS011;49533;-34.520;150.798;2022-08-27T09:05:05;1.83;;;1.25;;
63398;SDS011;49533;-34.520;150.798;2022-08-27T09:07:40;3.22;;;1.58;;
63398;SDS011;49533;-34.520;150.798;2022-08-27T09:13:35;1.63;;;1.50;;
63398;SDS011;49533;-34.520;150.798;2022-08-27T09:16:08;1.63;;;1.35;;
63398;SDS011;49533;-34.520;150.798;2022-08-27T09:18:36;1.50;;;1.40;;
63398;SDS011;49533;-34.520;150.798;2022-08-27T09:21:17;1.63;;;1.10;;
63398;SDS011;49533;-34.520;150.798;2022-08-27T09:24:33;1.70;;;1.38;;
63398;SDS011;49533;-34.520;150.798;2022-08-27T09:26:51;1.35;;;1.25;;
63398;SDS011;49533;-34.520;150.798;2022-08-27T09:29:19;2.67;;;1.33;;
63398;SDS011;49533;-34.520;150.798;2022-08-27T09:34:33;3.45;;;1.02;;
63398;SDS011;49533;-34.520;150.798;2022-08-27T09:44:58;1.63;;;1.10;;
63398;SDS011;49533;-34.520;150.798;2022-08-27T09:47:25;2.80;;;0.90;;
63398;SDS011;49533;-34.520;150.798;2022-08-27T09:50:00;1.42;;;1.00;;
63398;SDS011;49533;-34.520;150.798;2022-08-27T09:52:31;1.88;;;1.15;;
63398;SDS011;49533;-34.520;150.798;2022-08-27T09:55:01;1.90;;;1.20;;
63398;SDS011;49533;-34.520;150.798;2022-08-27T09:57:33;0.93;;;0.93;;
63398;SDS011;49533;-34.520;150.798;2022-08-27T10:00:12;2.40;;;1.00;;
63398;SDS011;49533;-34.520;150.798;2022-08-27T10:02:51;1.30;;;1.20;;
63398;SDS011;49533;-34.520;150.798;2022-08-27T10:06:04;1.40;;;1.30;;
63398;SDS011;49533;-34.520;150.798;2022-08-27T10:11:31;1.60;;;1.50;;
63398;SDS011;49533;-34.520;150.798;2022-08-27T10:14:05;1.55;;;1.30;;
63398;SDS011;49533;-34.520;150.798;2022-08-27T10:19:57;1.20;;;1.10;;
63398;SDS011;49533;-34.520;150.798;2022-08-27T10:31:33;1.00;;;0.90;;
63398;SDS011;49533;-34.520;150.798;2022-08-27T10:34:25;2.00;;;1.33;;
63398;SDS011;49533;-34.520;150.798;2022-08-27T10:40:15;1.88;;;1.20;;
63398;SDS011;49533;-34.520;150.798;2022-08-27T10:42:47;1.95;;;1.10;;
63398;SDS011;49533;-34.520;150.798;2022-08-27T10:50:55;0.82;;;0.82;;
63398;SDS011;49533;-34.520;150.798;2022-08-27T10:53:35;0.80;;;0.80;;
63398;SDS011;49533;-34.520;150.798;2022-08-27T10:56:20;1.05;;;0.70;;
63398;SDS011;49533;-34.520;150.798;2022-08-27T10:59:02;0.85;;;0.85;;
63398;SDS011;49533;-34.520;150.798;2022-08-27T11:02:27;0.60;;;0.60;;
63398;SDS011;49533;-34.520;150.798;2022-08-27T11:04:38;0.85;;;0.60;;
63398;SDS011;49533;-34.520;150.798;2022-08-27T11:07:16;1.85;;;0.85;;
63398;SDS011;49533;-34.520;150.798;2022-08-27T11:10:15;1.25;;;0.60;;
63398;SDS011;49533;-34.520;150.798;2022-08-27T11:12:44;0.70;;;0.70;;
63398;SDS011;49533;-34.520;150.798;2022-08-27T11:15:18;1.13;;;0.70;;
63398;SDS011;49533;-34.520;150.798;2022-08-27T11:18:10;0.80;;;0.45;;
63398;SDS011;49533;-34.520;150.798;2022-08-27T11:21:53;0.70;;;0.65;;
63398;SDS011;49533;-34.520;150.798;2022-08-27T11:24:18;0.98;;;0.70;;
63398;SDS011;49533;-34.520;150.798;2022-08-27T11:26:49;0.82;;;0.50;;
63398;SDS011;49533;-34.520;150.798;2022-08-27T11:29:31;0.35;;;0.35;;
63398;SDS011;49533;-34.520;150.798;2022-08-27T11:34:59;0.40;;;0.40;;
63398;SDS011;49533;-34.520;150.798;2022-08-27T11:37:39;0.50;;;0.43;;
63398;SDS011;49533;-34.520;150.798;2022-08-27T11:43:01;0.57;;;0.57;;
63398;SDS011;49533;-34.520;150.798;2022-08-27T11:45:36;1.00;;;0.47;;
63398;SDS011;49533;-34.520;150.798;2022-08-27T11:48:15;0.60;;;0.47;;
63398;SDS011;49533;-34.520;150.798;2022-08-27T11:54:21;0.77;;;0.60;;
63398;SDS011;49533;-34.520;150.798;2022-08-27T11:56:52;0.40;;;0.25;;
63398;SDS011;49533;-34.520;150.798;2022-08-27T11:59:28;0.32;;;0.32;;
63398;SDS011;49533;-34.520;150.798;2022-08-27T12:02:09;0.50;;;0.30;;
63398;SDS011;49533;-34.520;150.798;2022-08-27T12:04:51;0.40;;;0.30;;
63398;SDS011;49533;-34.520;150.798;2022-08-27T12:07:35;0.45;;;0.45;;
63398;SDS011;49533;-34.520;150.798;2022-08-27T12:10:12;0.63;;;0.40;;
63398;SDS011;49533;-34.520;150.798;2022-08-27T12:16:01;0.40;;;0.40;;
63398;SDS011;49533;-34.520;150.798;2022-08-27T12:26:41;0.43;;;0.40;;
63398;SDS011;49533;-34.520;150.798;2022-08-27T12:29:26;0.30;;;0.30;;
63398;SDS011;49533;-34.520;150.798;2022-08-27T12:35:12;0.25;;;0.25;;
63398;SDS011;49533;-34.520;150.798;2022-08-27T12:40:22;0.50;;;0.30;;
63398;SDS011;49533;-34.520;150.798;2022-08-27T12:42:51;0.20;;;0.20;;
63398;SDS011;49533;-34.520;150.798;2022-08-27T12:45:46;0.82;;;0.40;;
63398;SDS011;49533;-34.520;150.798;2022-08-27T12:48:26;0.80;;;0.47;;
63398;SDS011;49533;-34.520;150.798;2022-08-27T12:50:59;0.50;;;0.50;;
63398;SDS011;49533;-34.520;150.798;2022-08-27T13:02:28;0.40;;;0.40;;
63398;SDS011;49533;-34.520;150.798;2022-08-27T13:05:00;1.80;;;0.55;;
63398;SDS011;49533;-34.520;150.798;2022-08-27T13:07:32;0.95;;;0.77;;
63398;SDS011;49533;-34.520;150.798;2022-08-27T13:12:42;0.98;;;0.60;;
63398;SDS011;49533;-34.520;150.798;2022-08-27T13:15:11;1.33;;;0.60;;
63398;SDS011;49533;-34.520;150.798;2022-08-27T13:17:42;1.48;;;0.40;;
63398;SDS011;49533;-34.520;150.798;2022-08-27T13:22:49;0.50;;;0.40;;
63398;SDS011;49533;-34.520;150.798;2022-08-27T13:25:28;0.93;;;0.32;;
63398;SDS011;49533;-34.520;150.798;2022-08-27T13:27:59;0.65;;;0.65;;
63398;SDS011;49533;-34.520;150.798;2022-08-27T13:33:24;0.77;;;0.70;;
63398;SDS011;49533;-34.520;150.798;2022-08-27T13:38:22;0.60;;;0.60;;
63398;SDS011;49533;-34.520;150.798;2022-08-27T13:43:32;1.75;;;0.43;;
63398;SDS011;49533;-34.520;150.798;2022-08-27T13:46:04;0.47;;;0.47;;
63398;SDS011;49533;-34.520;150.798;2022-08-27T13:48:39;0.80;;;0.63;;
63398;SDS011;49533;-34.520;150.798;2022-08-27T13:51:07;0.90;;;0.85;;
63398;SDS011;49533;-34.520;150.798;2022-08-27T13:53:36;0.68;;;0.63;;
63398;SDS011;49533;-34.520;150.798;2022-08-27T13:56:32;1.60;;;1.30;;
63398;SDS011;49533;-34.520;150.798;2022-08-27T14:01:35;1.35;;;0.80;;
63398;SDS011;49533;-34.520;150.798;2022-08-27T14:04:07;1.17;;;0.80;;
63398;SDS011;49533;-34.520;150.798;2022-08-27T14:06:45;0.50;;;0.50;;
63398;SDS011;49533;-34.520;150.798;2022-08-27T14:09:17;0.82;;;0.82;;
63398;SDS011;49533;-34.520;150.798;2022-08-27T14:11:48;0.82;;;0.82;;
63398;SDS011;49533;-34.520;150.798;2022-08-27T14:14:28;1.20;;;1.08;;
63398;SDS011;49533;-34.520;150.798;2022-08-27T14:17:01;1.00;;;0.80;;
63398;SDS011;49533;-34.520;150.798;2022-08-27T14:19:31;1.13;;;0.55;;
63398;SDS011;49533;-34.520;150.798;2022-08-27T14:21:59;1.10;;;0.85;;
63398;SDS011;49533;-34.520;150.798;2022-08-27T14:24:26;0.68;;;0.68;;
63398;SDS011;49533;-34.520;150.798;2022-08-27T14:26:54;1.05;;;0.68;;
63398;SDS011;49533;-34.520;150.798;2022-08-27T14:29:33;1.52;;;0.85;;
63398;SDS011;49533;-34.520;150.798;2022-08-27T14:32:01;1.48;;;0.80;;
63398;SDS011;49533;-34.520;150.798;2022-08-27T14:34:28;0.93;;;0.65;;
63398;SDS011;49533;-34.520;150.798;2022-08-27T14:36:56;1.10;;;0.82;;
63398;SDS011;49533;-34.520;150.798;2022-08-27T14:39:23;1.00;;;0.82;;
63398;SDS011;49533;-34.520;150.798;2022-08-27T14:41:50;1.10;;;0.80;;
63398;SDS011;49533;-34.520;150.798;2022-08-27T14:44:17;0.70;;;0.70;;
63398;SDS011;49533;-34.520;150.798;2022-08-27T14:46:44;0.80;;;0.80;;
63398;SDS011;49533;-34.520;150.798;2022-08-27T14:49:23;0.70;;;0.60;;
63398;SDS011;49533;-34.520;150.798;2022-08-27T14:51:55;0.85;;;0.77;;
63398;SDS011;49533;-34.520;150.798;2022-08-27T14:54:23;0.80;;;0.77;;
63398;SDS011;49533;-34.520;150.798;2022-08-27T14:56:50;0.55;;;0.55;;
63398;SDS011;49533;-34.520;150.798;2022-08-27T14:59:18;0.80;;;0.70;;
63398;SDS011;49533;-34.520;150.798;2022-08-27T15:01:46;0.70;;;0.70;;
63398;SDS011;49533;-34.520;150.798;2022-08-27T15:04:13;0.70;;;0.70;;
63398;SDS011;49533;-34.520;150.798;2022-08-27T15:06:41;1.73;;;0.85;;
63398;SDS011;49533;-34.520;150.798;2022-08-27T15:09:08;2.42;;;1.00;;
63398;SDS011;49533;-34.520;150.798;2022-08-27T15:11:35;1.48;;;0.80;;
63398;SDS011;49533;-34.520;150.798;2022-08-27T15:14:09;0.68;;;0.65;;
63398;SDS011;49533;-34.520;150.798;2022-08-27T15:16:48;0.77;;;0.77;;
63398;SDS011;49533;-34.520;150.798;2022-08-27T15:19:17;1.20;;;1.10;;
63398;SDS011;49533;-34.520;150.798;2022-08-27T15:21:46;0.95;;;0.63;;
63398;SDS011;49533;-34.520;150.798;2022-08-27T15:24:17;0.60;;;0.60;;
63398;SDS011;49533;-34.520;150.798;2022-08-27T15:26:50;0.63;;;0.63;;
63398;SDS011;49533;-34.520;150.798;2022-08-27T15:29:19;0.85;;;0.60;;
63398;SDS011;49533;-34.520;150.798;2022-08-27T15:31:46;0.60;;;0.60;;
63398;SDS011;49533;-34.520;150.798;2022-08-27T15:34:13;0.50;;;0.50;;
63398;SDS011;49533;-34.520;150.798;2022-08-27T15:36:40;0.70;;;0.70;;
63398;SDS011;49533;-34.520;150.798;2022-08-27T15:39:08;0.30;;;0.30;;
63398;SDS011;49533;-34.520;150.798;2022-08-27T15:41:36;1.27;;;0.85;;
63398;SDS011;49533;-34.520;150.798;2022-08-27T15:44:06;0.50;;;0.50;;
63398;SDS011;49533;-34.520;150.798;2022-08-27T15:46:33;0.38;;;0.38;;
63398;SDS011;49533;-34.520;150.798;2022-08-27T15:49:00;0.45;;;0.45;;
63398;SDS011;49533;-34.520;150.798;2022-08-27T15:51:31;0.75;;;0.65;;
63398;SDS011;49533;-34.520;150.798;2022-08-27T15:53:59;0.60;;;0.60;;
63398;SDS011;49533;-34.520;150.798;2022-08-27T15:56:26;1.35;;;0.50;;
63398;SDS011;49533;-34.520;150.798;2022-08-27T15:58:53;0.50;;;0.50;;
63398;SDS011;49533;-34.520;150.798;2022-08-27T16:01:24;0.73;;;0.50;;